AAL318 KLAX-KPDX
Flight info
| Callsign | AAL318 |
|---|---|
| Flight time | 1h 52m |
| Altitude | 38000 |
| Route | LADYJ4 CSTRO SHIMR LMT MOXEE TMBRS4 |
| Aircraft | B77W/H-SDE1E2E3FGHIJ2J3J4J5M1RWXY/LB1D1 |
Departure
| Time | 2026-04-20 03:45 |
|---|---|
| Airport | Los Angeles International Airport (KLAX) |
Arrival
| Time | 2026-04-20 05:38 |
|---|---|
| Airport | Portland International Airport (KPDX) |
| Time | Latitude | Longitude | Altitude | Speed | Heading |
|---|---|---|---|---|---|
| 2026-04-20 03:15 | 33.94177 | -118.41093 | 125 ft | 0 kts | 83° |
| 2026-04-20 03:31 | 33.94176 | -118.41108 | 129 ft | 4 kts | 83° |
| 2026-04-20 03:31 | 33.94174 | -118.41130 | 126 ft | 3 kts | 83° |
| 2026-04-20 03:31 | 33.94171 | -118.41161 | 125 ft | 2 kts | 83° |
| 2026-04-20 03:32 | 33.94166 | -118.41187 | 129 ft | 4 kts | 53° |
| 2026-04-20 03:32 | 33.94147 | -118.41201 | 126 ft | 4 kts | 0° |
| 2026-04-20 03:32 | 33.94121 | -118.41199 | 128 ft | 3 kts | 353° |
| 2026-04-20 03:32 | 33.94102 | -118.41196 | 130 ft | 0 kts | 353° |
| 2026-04-20 03:36 | 33.94103 | -118.41196 | 130 ft | 1 kts | 353° |
| 2026-04-20 03:36 | 33.94124 | -118.41199 | 125 ft | 8 kts | 352° |
| 2026-04-20 03:37 | 33.94184 | -118.41209 | 126 ft | 10 kts | 352° |
| 2026-04-20 03:37 | 33.94270 | -118.41222 | 127 ft | 14 kts | 354° |
| 2026-04-20 03:37 | 33.94364 | -118.41233 | 126 ft | 14 kts | 354° |
| 2026-04-20 03:37 | 33.94457 | -118.41249 | 128 ft | 14 kts | 352° |
| 2026-04-20 03:38 | 33.94532 | -118.41262 | 128 ft | 7 kts | 352° |
| 2026-04-20 03:38 | 33.94573 | -118.41267 | 130 ft | 0 kts | 353° |
| 2026-04-20 03:39 | 33.94574 | -118.41268 | 130 ft | 1 kts | 353° |
| 2026-04-20 03:39 | 33.94600 | -118.41271 | 129 ft | 1 kts | 353° |
| 2026-04-20 03:39 | 33.94611 | -118.41273 | 129 ft | 2 kts | 353° |
| 2026-04-20 03:39 | 33.94636 | -118.41277 | 126 ft | 9 kts | 353° |
| 2026-04-20 03:40 | 33.94709 | -118.41288 | 127 ft | 12 kts | 353° |
| 2026-04-20 03:40 | 33.94794 | -118.41267 | 129 ft | 9 kts | 65° |
| 2026-04-20 03:40 | 33.94804 | -118.41184 | 126 ft | 10 kts | 83° |
| 2026-04-20 03:40 | 33.94814 | -118.41094 | 126 ft | 11 kts | 83° |
| 2026-04-20 03:41 | 33.94824 | -118.40996 | 127 ft | 13 kts | 82° |
| 2026-04-20 03:41 | 33.94836 | -118.40882 | 128 ft | 15 kts | 83° |
| 2026-04-20 03:41 | 33.94849 | -118.40748 | 128 ft | 17 kts | 83° |
| 2026-04-20 03:41 | 33.94865 | -118.40598 | 127 ft | 19 kts | 82° |
| 2026-04-20 03:42 | 33.94881 | -118.40443 | 126 ft | 19 kts | 83° |
| 2026-04-20 03:42 | 33.94895 | -118.40308 | 126 ft | 15 kts | 83° |
| 2026-04-20 03:42 | 33.94907 | -118.40187 | 127 ft | 14 kts | 83° |
| 2026-04-20 03:42 | 33.94919 | -118.40070 | 126 ft | 14 kts | 83° |
| 2026-04-20 03:43 | 33.94929 | -118.39980 | 126 ft | 6 kts | 83° |
| 2026-04-20 03:43 | 33.94936 | -118.39948 | 128 ft | 3 kts | 60° |
| 2026-04-20 03:43 | 33.94956 | -118.39924 | 126 ft | 6 kts | 32° |
| 2026-04-20 03:43 | 33.95008 | -118.39920 | 126 ft | 13 kts | 354° |
| 2026-04-20 03:44 | 33.95037 | -118.39935 | 126 ft | 3 kts | 297° |
| 2026-04-20 03:44 | 33.95040 | -118.39964 | 127 ft | 4 kts | 274° |
| 2026-04-20 03:44 | 33.95037 | -118.39998 | 127 ft | 4 kts | 262° |
| 2026-04-20 03:44 | 33.95027 | -118.40089 | 130 ft | 33 kts | 263° |
| 2026-04-20 03:45 | 33.94963 | -118.40725 | 126 ft | 118 kts | 263° |
| 2026-04-20 03:45 | 33.94831 | -118.41991 | 218 ft | 176 kts | 263° |
| 2026-04-20 03:45 | 33.94667 | -118.43545 | 727 ft | 197 kts | 263° |
| 2026-04-20 03:45 | 33.94512 | -118.45213 | 1571 ft | 202 kts | 264° |
| 2026-04-20 03:46 | 33.94441 | -118.46917 | 2341 ft | 209 kts | 268° |
| 2026-04-20 03:46 | 33.94368 | -118.48759 | 2779 ft | 234 kts | 267° |
| 2026-04-20 03:46 | 33.94277 | -118.50823 | 3263 ft | 256 kts | 266° |
| 2026-04-20 03:46 | 33.94149 | -118.52975 | 4272 ft | 254 kts | 265° |
| 2026-04-20 03:47 | 33.93971 | -118.55021 | 5621 ft | 238 kts | 263° |
| 2026-04-20 03:47 | 33.93757 | -118.57005 | 6499 ft | 244 kts | 262° |
| 2026-04-20 03:47 | 33.93516 | -118.59159 | 6734 ft | 277 kts | 262° |
| 2026-04-20 03:47 | 33.93236 | -118.61578 | 7145 ft | 298 kts | 262° |
| 2026-04-20 03:48 | 33.92949 | -118.64048 | 7554 ft | 295 kts | 263° |
| 2026-04-20 03:48 | 33.92957 | -118.66470 | 7863 ft | 288 kts | 280° |
| 2026-04-20 03:48 | 33.93625 | -118.68731 | 8305 ft | 292 kts | 297° |
| 2026-04-20 03:48 | 33.94898 | -118.70672 | 8157 ft | 298 kts | 323° |
| 2026-04-20 03:49 | 33.96744 | -118.71695 | 8084 ft | 290 kts | 348° |
| 2026-04-20 03:49 | 33.98718 | -118.71553 | 8019 ft | 287 kts | 22° |
| 2026-04-20 03:49 | 34.00296 | -118.70138 | 8009 ft | 286 kts | 55° |
| 2026-04-20 03:49 | 34.01049 | -118.67984 | 8008 ft | 282 kts | 74° |
| 2026-04-20 03:50 | 34.01984 | -118.65878 | 7992 ft | 289 kts | 44° |
| 2026-04-20 03:50 | 34.03739 | -118.64709 | 7999 ft | 294 kts | 11° |
| 2026-04-20 03:50 | 34.05757 | -118.64739 | 7994 ft | 289 kts | 351° |
| 2026-04-20 03:50 | 34.07719 | -118.65114 | 8000 ft | 291 kts | 349° |
| 2026-04-20 03:51 | 34.09726 | -118.65491 | 8350 ft | 292 kts | 354° |
| 2026-04-20 03:51 | 34.11771 | -118.65609 | 9243 ft | 296 kts | 0° |
| 2026-04-20 03:51 | 34.13838 | -118.65488 | 10130 ft | 300 kts | 5° |
| 2026-04-20 03:51 | 34.15987 | -118.65175 | 10723 ft | 318 kts | 9° |
| 2026-04-20 03:52 | 34.18244 | -118.64713 | 10934 ft | 348 kts | 11° |
| 2026-04-20 03:52 | 34.20721 | -118.64137 | 11167 ft | 378 kts | 12° |
| 2026-04-20 03:52 | 34.23392 | -118.63507 | 11753 ft | 390 kts | 10° |
| 2026-04-20 03:52 | 34.26097 | -118.63409 | 12322 ft | 400 kts | 351° |
| 2026-04-20 03:53 | 34.28857 | -118.64104 | 13113 ft | 409 kts | 347° |
| 2026-04-20 03:53 | 34.31647 | -118.64840 | 14183 ft | 412 kts | 348° |
| 2026-04-20 03:53 | 34.34465 | -118.65535 | 15259 ft | 416 kts | 348° |
| 2026-04-20 03:53 | 34.37329 | -118.66204 | 16187 ft | 423 kts | 348° |
| 2026-04-20 03:54 | 34.40242 | -118.66867 | 17155 ft | 428 kts | 348° |
| 2026-04-20 03:54 | 34.43185 | -118.67532 | 18074 ft | 433 kts | 349° |
| 2026-04-20 03:54 | 34.46182 | -118.68151 | 18960 ft | 439 kts | 349° |
| 2026-04-20 03:54 | 34.49209 | -118.68733 | 19842 ft | 443 kts | 350° |
| 2026-04-20 03:55 | 34.52269 | -118.69311 | 20705 ft | 447 kts | 350° |
| 2026-04-20 03:55 | 34.55359 | -118.69899 | 21539 ft | 451 kts | 349° |
| 2026-04-20 03:55 | 34.58471 | -118.70499 | 22316 ft | 456 kts | 349° |
| 2026-04-20 03:55 | 34.61576 | -118.71105 | 23062 ft | 460 kts | 349° |
| 2026-04-20 03:56 | 34.64750 | -118.71727 | 23771 ft | 465 kts | 349° |
| 2026-04-20 03:56 | 34.67952 | -118.72356 | 24473 ft | 469 kts | 349° |
| 2026-04-20 03:56 | 34.71184 | -118.73024 | 25192 ft | 471 kts | 346° |
| 2026-04-20 03:56 | 34.74243 | -118.74339 | 25846 ft | 464 kts | 330° |
| 2026-04-20 03:57 | 34.77055 | -118.76302 | 26394 ft | 469 kts | 327° |
| 2026-04-20 03:57 | 34.79863 | -118.78343 | 26985 ft | 472 kts | 327° |
| 2026-04-20 03:57 | 34.82694 | -118.80391 | 27614 ft | 474 kts | 327° |
| 2026-04-20 03:57 | 34.85543 | -118.82419 | 28219 ft | 476 kts | 328° |
| 2026-04-20 03:58 | 34.88425 | -118.84435 | 28775 ft | 478 kts | 328° |
| 2026-04-20 03:58 | 34.91321 | -118.86439 | 29275 ft | 481 kts | 328° |
| 2026-04-20 03:58 | 34.94244 | -118.88452 | 29733 ft | 483 kts | 328° |
| 2026-04-20 03:58 | 34.97177 | -118.90466 | 30214 ft | 484 kts | 328° |
| 2026-04-20 03:59 | 35.00106 | -118.92480 | 30803 ft | 482 kts | 328° |
| 2026-04-20 03:59 | 35.03014 | -118.94481 | 31413 ft | 478 kts | 328° |
| 2026-04-20 03:59 | 35.05895 | -118.96468 | 32038 ft | 475 kts | 328° |
| 2026-04-20 03:59 | 35.08763 | -118.98448 | 32600 ft | 472 kts | 328° |
| 2026-04-20 04:00 | 35.11616 | -119.00422 | 33135 ft | 470 kts | 328° |
| 2026-04-20 04:00 | 35.14453 | -119.02386 | 33654 ft | 468 kts | 328° |
| 2026-04-20 04:00 | 35.17273 | -119.04341 | 34137 ft | 466 kts | 327° |
| 2026-04-20 04:00 | 35.20086 | -119.06290 | 34596 ft | 464 kts | 327° |
| 2026-04-20 04:01 | 35.22897 | -119.08241 | 34958 ft | 465 kts | 327° |
| 2026-04-20 04:01 | 35.25712 | -119.10198 | 35303 ft | 465 kts | 327° |
| 2026-04-20 04:01 | 35.28529 | -119.12156 | 35644 ft | 466 kts | 327° |
| 2026-04-20 04:01 | 35.31344 | -119.14115 | 36013 ft | 465 kts | 327° |
| 2026-04-20 04:02 | 35.34155 | -119.16072 | 36352 ft | 465 kts | 327° |
| 2026-04-20 04:02 | 35.36971 | -119.18034 | 36638 ft | 466 kts | 327° |
| 2026-04-20 04:02 | 35.39790 | -119.20000 | 36970 ft | 465 kts | 327° |
| 2026-04-20 04:02 | 35.42595 | -119.21957 | 37412 ft | 462 kts | 326° |
| 2026-04-20 04:03 | 35.45427 | -119.23785 | 37815 ft | 462 kts | 334° |
| 2026-04-20 04:03 | 35.48514 | -119.25000 | 37883 ft | 470 kts | 341° |
| 2026-04-20 04:03 | 35.54909 | -119.26796 | 37885 ft | 471 kts | 343° |
| 2026-04-20 04:04 | 35.61266 | -119.28488 | 37903 ft | 465 kts | 343° |
| 2026-04-20 04:04 | 35.67546 | -119.30285 | 37911 ft | 462 kts | 342° |
| 2026-04-20 04:05 | 35.73797 | -119.32152 | 37921 ft | 462 kts | 342° |
| 2026-04-20 04:05 | 35.80045 | -119.34038 | 37919 ft | 463 kts | 342° |
| 2026-04-20 04:06 | 35.86317 | -119.35933 | 37919 ft | 465 kts | 342° |
| 2026-04-20 04:06 | 35.92567 | -119.37818 | 37920 ft | 466 kts | 342° |
| 2026-04-20 04:07 | 35.98868 | -119.39717 | 37928 ft | 466 kts | 342° |
| 2026-04-20 04:07 | 36.05173 | -119.41620 | 37922 ft | 466 kts | 342° |
| 2026-04-20 04:08 | 36.11476 | -119.43531 | 37918 ft | 466 kts | 342° |
| 2026-04-20 04:08 | 36.17772 | -119.45440 | 37916 ft | 466 kts | 342° |
| 2026-04-20 04:09 | 36.24058 | -119.47349 | 37917 ft | 465 kts | 342° |
| 2026-04-20 04:09 | 36.30345 | -119.49262 | 37915 ft | 465 kts | 342° |
| 2026-04-20 04:10 | 36.36621 | -119.51176 | 37917 ft | 464 kts | 341° |
| 2026-04-20 04:10 | 36.42892 | -119.53093 | 37913 ft | 465 kts | 341° |
| 2026-04-20 04:11 | 36.49176 | -119.55015 | 37907 ft | 465 kts | 341° |
| 2026-04-20 04:11 | 36.55460 | -119.56942 | 37896 ft | 465 kts | 342° |
| 2026-04-20 04:12 | 36.61756 | -119.58872 | 37895 ft | 466 kts | 342° |
| 2026-04-20 04:12 | 36.68054 | -119.60808 | 37884 ft | 466 kts | 341° |
| 2026-04-20 04:13 | 36.74350 | -119.62745 | 37893 ft | 466 kts | 341° |
| 2026-04-20 04:13 | 36.80602 | -119.64674 | 37903 ft | 466 kts | 341° |
| 2026-04-20 04:14 | 36.86894 | -119.66618 | 37909 ft | 466 kts | 341° |
| 2026-04-20 04:14 | 36.93184 | -119.68565 | 37909 ft | 466 kts | 341° |
| 2026-04-20 04:15 | 36.99488 | -119.70521 | 37911 ft | 467 kts | 341° |
| 2026-04-20 04:15 | 37.05794 | -119.72478 | 37906 ft | 468 kts | 341° |
| 2026-04-20 04:16 | 37.12116 | -119.74445 | 37920 ft | 468 kts | 341° |
| 2026-04-20 04:16 | 37.18433 | -119.76416 | 37931 ft | 468 kts | 341° |
| 2026-04-20 04:17 | 37.24762 | -119.78390 | 37922 ft | 469 kts | 341° |
| 2026-04-20 04:17 | 37.31096 | -119.80370 | 37937 ft | 469 kts | 341° |
| 2026-04-20 04:18 | 37.37426 | -119.82352 | 37947 ft | 469 kts | 341° |
| 2026-04-20 04:18 | 37.42689 | -119.84004 | 37952 ft | 469 kts | 341° |
| 2026-04-20 04:19 | 37.49028 | -119.85995 | 37942 ft | 470 kts | 341° |
| 2026-04-20 04:19 | 37.55370 | -119.87990 | 37955 ft | 470 kts | 341° |
| 2026-04-20 04:20 | 37.61709 | -119.89989 | 37955 ft | 469 kts | 341° |
| 2026-04-20 04:20 | 37.68050 | -119.91991 | 37931 ft | 471 kts | 341° |
| 2026-04-20 04:21 | 37.74402 | -119.94004 | 37934 ft | 470 kts | 341° |
| 2026-04-20 04:21 | 37.80747 | -119.96016 | 37933 ft | 469 kts | 341° |
| 2026-04-20 04:22 | 37.87077 | -119.98025 | 37938 ft | 469 kts | 341° |
| 2026-04-20 04:22 | 37.93405 | -120.00038 | 37946 ft | 469 kts | 341° |
| 2026-04-20 04:23 | 37.99735 | -120.02055 | 37957 ft | 469 kts | 341° |
| 2026-04-20 04:23 | 38.06058 | -120.04076 | 37956 ft | 468 kts | 341° |
| 2026-04-20 04:24 | 38.12376 | -120.06096 | 37967 ft | 468 kts | 341° |
| 2026-04-20 04:24 | 38.18691 | -120.08120 | 37977 ft | 468 kts | 341° |
| 2026-04-20 04:25 | 38.25012 | -120.10172 | 37969 ft | 468 kts | 339° |
| 2026-04-20 04:25 | 38.31231 | -120.12563 | 37969 ft | 467 kts | 337° |
| 2026-04-20 04:26 | 38.37414 | -120.15084 | 37987 ft | 467 kts | 337° |
| 2026-04-20 04:26 | 38.43622 | -120.17581 | 37989 ft | 468 kts | 338° |
| 2026-04-20 04:27 | 38.49838 | -120.20050 | 37994 ft | 468 kts | 338° |
| 2026-04-20 04:27 | 38.56076 | -120.22513 | 38005 ft | 469 kts | 338° |
| 2026-04-20 04:28 | 38.62309 | -120.24977 | 38006 ft | 470 kts | 338° |
| 2026-04-20 04:28 | 38.68561 | -120.27460 | 38007 ft | 471 kts | 338° |
| 2026-04-20 04:29 | 38.74780 | -120.29933 | 38009 ft | 472 kts | 338° |
| 2026-04-20 04:29 | 38.81053 | -120.32433 | 38016 ft | 472 kts | 338° |
| 2026-04-20 04:30 | 38.87322 | -120.34936 | 38030 ft | 473 kts | 338° |
| 2026-04-20 04:30 | 38.93614 | -120.37450 | 38024 ft | 473 kts | 338° |
| 2026-04-20 04:31 | 38.99913 | -120.39976 | 38028 ft | 475 kts | 338° |
| 2026-04-20 04:31 | 39.06223 | -120.42509 | 38023 ft | 476 kts | 338° |
| 2026-04-20 04:32 | 39.12541 | -120.45051 | 38035 ft | 476 kts | 338° |
| 2026-04-20 04:32 | 39.18872 | -120.47598 | 38038 ft | 477 kts | 338° |
| 2026-04-20 04:33 | 39.25202 | -120.50152 | 38041 ft | 477 kts | 338° |
| 2026-04-20 04:33 | 39.31530 | -120.52713 | 38033 ft | 477 kts | 338° |
| 2026-04-20 04:34 | 39.37857 | -120.55277 | 38043 ft | 476 kts | 338° |
| 2026-04-20 04:34 | 39.44176 | -120.57843 | 38042 ft | 476 kts | 338° |
| 2026-04-20 04:35 | 39.50506 | -120.60416 | 38036 ft | 477 kts | 338° |
| 2026-04-20 04:35 | 39.56827 | -120.62991 | 38040 ft | 477 kts | 338° |
| 2026-04-20 04:36 | 39.66333 | -120.66875 | 38038 ft | 477 kts | 338° |
| 2026-04-20 04:37 | 39.72664 | -120.69468 | 38041 ft | 477 kts | 338° |
| 2026-04-20 04:37 | 39.79003 | -120.72069 | 38022 ft | 478 kts | 338° |
| 2026-04-20 04:38 | 39.85338 | -120.74671 | 38016 ft | 478 kts | 338° |
| 2026-04-20 04:38 | 39.91683 | -120.77283 | 38005 ft | 478 kts | 337° |
| 2026-04-20 04:39 | 39.98037 | -120.79904 | 38004 ft | 479 kts | 337° |
| 2026-04-20 04:39 | 40.04403 | -120.82538 | 37990 ft | 480 kts | 338° |
| 2026-04-20 04:40 | 40.10764 | -120.85174 | 38005 ft | 480 kts | 337° |
| 2026-04-20 04:40 | 40.17097 | -120.87800 | 38012 ft | 481 kts | 337° |
| 2026-04-20 04:41 | 40.23492 | -120.90464 | 38005 ft | 483 kts | 337° |
| 2026-04-20 04:41 | 40.29904 | -120.93134 | 38001 ft | 484 kts | 337° |
| 2026-04-20 04:42 | 40.36338 | -120.95821 | 38000 ft | 485 kts | 337° |
| 2026-04-20 04:42 | 40.42778 | -120.98515 | 37988 ft | 486 kts | 337° |
| 2026-04-20 04:43 | 40.49222 | -121.01217 | 37991 ft | 486 kts | 337° |
| 2026-04-20 04:43 | 40.55666 | -121.03922 | 37988 ft | 486 kts | 337° |
| 2026-04-20 04:44 | 40.62095 | -121.06628 | 37996 ft | 485 kts | 337° |
| 2026-04-20 04:44 | 40.68533 | -121.09344 | 37987 ft | 485 kts | 337° |
| 2026-04-20 04:45 | 40.74962 | -121.12063 | 37997 ft | 485 kts | 337° |
| 2026-04-20 04:45 | 40.81395 | -121.14787 | 37988 ft | 486 kts | 337° |
| 2026-04-20 04:46 | 40.87834 | -121.17519 | 37970 ft | 486 kts | 337° |
| 2026-04-20 04:46 | 40.94271 | -121.20256 | 37986 ft | 486 kts | 337° |
| 2026-04-20 04:47 | 41.00719 | -121.23004 | 37981 ft | 487 kts | 337° |
| 2026-04-20 04:47 | 41.07177 | -121.25763 | 37961 ft | 489 kts | 337° |
| 2026-04-20 04:48 | 41.13617 | -121.28519 | 37956 ft | 490 kts | 337° |
| 2026-04-20 04:48 | 41.20151 | -121.31321 | 37949 ft | 491 kts | 337° |
| 2026-04-20 04:49 | 41.26606 | -121.34093 | 37950 ft | 491 kts | 337° |
| 2026-04-20 04:49 | 41.33094 | -121.36887 | 37956 ft | 490 kts | 337° |
| 2026-04-20 04:50 | 41.39582 | -121.39686 | 37957 ft | 491 kts | 337° |
| 2026-04-20 04:50 | 41.46086 | -121.42497 | 37955 ft | 492 kts | 337° |
| 2026-04-20 04:51 | 41.52610 | -121.45324 | 37964 ft | 493 kts | 337° |
| 2026-04-20 04:51 | 41.59144 | -121.48163 | 37953 ft | 494 kts | 337° |
| 2026-04-20 04:52 | 41.65682 | -121.51008 | 37955 ft | 495 kts | 337° |
| 2026-04-20 04:52 | 41.72236 | -121.53864 | 37955 ft | 495 kts | 337° |
| 2026-04-20 04:53 | 41.78798 | -121.56732 | 37960 ft | 496 kts | 337° |
| 2026-04-20 04:53 | 41.85366 | -121.59608 | 37948 ft | 497 kts | 337° |
| 2026-04-20 04:54 | 41.91950 | -121.62497 | 37948 ft | 498 kts | 337° |
| 2026-04-20 04:54 | 41.98539 | -121.65396 | 37944 ft | 498 kts | 337° |
| 2026-04-20 04:55 | 42.05132 | -121.68303 | 37950 ft | 499 kts | 337° |
| 2026-04-20 04:55 | 42.11723 | -121.71216 | 37943 ft | 499 kts | 337° |
| 2026-04-20 04:56 | 42.18302 | -121.74180 | 37950 ft | 498 kts | 335° |
| 2026-04-20 04:56 | 42.24797 | -121.77408 | 37950 ft | 497 kts | 334° |
| 2026-04-20 04:57 | 42.31227 | -121.80680 | 37941 ft | 497 kts | 334° |
| 2026-04-20 04:57 | 42.37712 | -121.83950 | 37938 ft | 497 kts | 335° |
| 2026-04-20 04:58 | 42.44203 | -121.87200 | 37938 ft | 497 kts | 335° |
| 2026-04-20 04:58 | 42.50689 | -121.90446 | 37936 ft | 497 kts | 335° |
| 2026-04-20 04:59 | 42.57167 | -121.93698 | 37933 ft | 496 kts | 335° |
| 2026-04-20 04:59 | 42.63638 | -121.96956 | 37921 ft | 496 kts | 335° |
| 2026-04-20 05:00 | 42.70104 | -122.00217 | 37908 ft | 496 kts | 335° |
| 2026-04-20 05:00 | 42.76574 | -122.03489 | 37903 ft | 496 kts | 335° |
| 2026-04-20 05:01 | 42.83058 | -122.06777 | 37905 ft | 498 kts | 335° |
| 2026-04-20 05:01 | 42.89554 | -122.10079 | 37899 ft | 499 kts | 335° |
| 2026-04-20 05:02 | 42.96065 | -122.13390 | 37899 ft | 500 kts | 335° |
| 2026-04-20 05:02 | 43.02579 | -122.16714 | 37899 ft | 500 kts | 335° |
| 2026-04-20 05:03 | 43.09104 | -122.20050 | 37908 ft | 500 kts | 335° |
| 2026-04-20 05:03 | 43.15624 | -122.23391 | 37921 ft | 501 kts | 335° |
| 2026-04-20 05:04 | 43.22148 | -122.26744 | 37920 ft | 500 kts | 335° |
| 2026-04-20 05:04 | 43.27555 | -122.29526 | 37929 ft | 499 kts | 335° |
| 2026-04-20 05:05 | 43.34052 | -122.32879 | 37932 ft | 499 kts | 335° |
| 2026-04-20 05:05 | 43.40551 | -122.36241 | 37928 ft | 499 kts | 335° |
| 2026-04-20 05:06 | 43.47043 | -122.39606 | 37938 ft | 498 kts | 335° |
| 2026-04-20 05:06 | 43.53516 | -122.42967 | 37943 ft | 497 kts | 335° |
| 2026-04-20 05:07 | 43.59994 | -122.46337 | 37910 ft | 498 kts | 335° |
| 2026-04-20 05:07 | 43.63260 | -122.48045 | 37236 ft | 507 kts | 335° |
| 2026-04-20 05:07 | 43.66569 | -122.49777 | 36551 ft | 507 kts | 336° |
| 2026-04-20 05:07 | 43.69856 | -122.51495 | 35812 ft | 505 kts | 336° |
| 2026-04-20 05:08 | 43.73099 | -122.53190 | 34972 ft | 505 kts | 336° |
| 2026-04-20 05:08 | 43.76412 | -122.54925 | 34108 ft | 511 kts | 336° |
| 2026-04-20 05:08 | 43.79745 | -122.56674 | 33177 ft | 514 kts | 336° |
| 2026-04-20 05:08 | 43.83097 | -122.58433 | 32209 ft | 516 kts | 336° |
| 2026-04-20 05:09 | 43.86466 | -122.60205 | 31167 ft | 519 kts | 336° |
| 2026-04-20 05:09 | 43.89855 | -122.61987 | 30147 ft | 521 kts | 336° |
| 2026-04-20 05:09 | 43.93230 | -122.63765 | 29464 ft | 516 kts | 336° |
| 2026-04-20 05:09 | 43.96561 | -122.65523 | 28755 ft | 511 kts | 336° |
| 2026-04-20 05:10 | 43.99870 | -122.67273 | 28073 ft | 506 kts | 336° |
| 2026-04-20 05:10 | 44.03154 | -122.69012 | 27394 ft | 502 kts | 337° |
| 2026-04-20 05:10 | 44.06401 | -122.70732 | 26714 ft | 497 kts | 337° |
| 2026-04-20 05:10 | 44.09615 | -122.72435 | 26042 ft | 492 kts | 337° |
| 2026-04-20 05:11 | 44.12797 | -122.74119 | 25388 ft | 485 kts | 338° |
| 2026-04-20 05:11 | 44.16046 | -122.75309 | 24710 ft | 483 kts | 353° |
| 2026-04-20 05:11 | 44.19368 | -122.75228 | 24094 ft | 473 kts | 6° |
| 2026-04-20 05:11 | 44.22624 | -122.74758 | 23467 ft | 469 kts | 6° |
| 2026-04-20 05:12 | 44.25864 | -122.74323 | 22836 ft | 466 kts | 5° |
| 2026-04-20 05:12 | 44.29092 | -122.73939 | 22197 ft | 463 kts | 5° |
| 2026-04-20 05:12 | 44.32292 | -122.73596 | 21581 ft | 460 kts | 4° |
| 2026-04-20 05:12 | 44.35476 | -122.73277 | 20969 ft | 457 kts | 4° |
| 2026-04-20 05:13 | 44.38631 | -122.72971 | 20359 ft | 453 kts | 4° |
| 2026-04-20 05:13 | 44.41767 | -122.72667 | 19751 ft | 450 kts | 4° |
| 2026-04-20 05:13 | 44.44881 | -122.72363 | 19144 ft | 447 kts | 4° |
| 2026-04-20 05:13 | 44.47966 | -122.72058 | 18692 ft | 440 kts | 4° |
| 2026-04-20 05:14 | 44.50968 | -122.71761 | 18525 ft | 426 kts | 4° |
| 2026-04-20 05:14 | 44.53842 | -122.71478 | 18344 ft | 413 kts | 4° |
| 2026-04-20 05:14 | 44.56668 | -122.71198 | 18168 ft | 401 kts | 4° |
| 2026-04-20 05:14 | 44.59415 | -122.70925 | 17902 ft | 393 kts | 4° |
| 2026-04-20 05:15 | 44.62103 | -122.70657 | 17459 ft | 380 kts | 4° |
| 2026-04-20 05:15 | 44.64718 | -122.70394 | 17257 ft | 376 kts | 4° |
| 2026-04-20 05:15 | 44.67370 | -122.70127 | 16745 ft | 385 kts | 4° |
| 2026-04-20 05:15 | 44.70053 | -122.69858 | 16313 ft | 382 kts | 4° |
| 2026-04-20 05:16 | 44.72624 | -122.69599 | 15856 ft | 359 kts | 5° |
| 2026-04-20 05:16 | 44.75042 | -122.69356 | 15481 ft | 353 kts | 5° |
| 2026-04-20 05:16 | 44.77575 | -122.69099 | 15099 ft | 367 kts | 5° |
| 2026-04-20 05:16 | 44.80142 | -122.68839 | 14582 ft | 370 kts | 5° |
| 2026-04-20 05:17 | 44.82607 | -122.68592 | 14108 ft | 354 kts | 5° |
| 2026-04-20 05:17 | 44.85064 | -122.68347 | 13717 ft | 354 kts | 5° |
| 2026-04-20 05:17 | 44.87522 | -122.68098 | 13316 ft | 354 kts | 5° |
| 2026-04-20 05:17 | 44.89972 | -122.67851 | 12910 ft | 353 kts | 5° |
| 2026-04-20 05:18 | 44.92409 | -122.67606 | 12629 ft | 347 kts | 5° |
| 2026-04-20 05:18 | 44.94789 | -122.67367 | 12480 ft | 337 kts | 5° |
| 2026-04-20 05:18 | 44.97093 | -122.67135 | 12278 ft | 330 kts | 5° |
| 2026-04-20 05:18 | 44.99336 | -122.66907 | 11905 ft | 316 kts | 5° |
| 2026-04-20 05:19 | 45.01547 | -122.66684 | 11604 ft | 321 kts | 5° |
| 2026-04-20 05:19 | 45.03780 | -122.66455 | 11256 ft | 322 kts | 5° |
| 2026-04-20 05:19 | 45.06009 | -122.66228 | 10909 ft | 320 kts | 5° |
| 2026-04-20 05:19 | 45.08223 | -122.66002 | 10558 ft | 318 kts | 5° |
| 2026-04-20 05:20 | 45.10422 | -122.65777 | 10222 ft | 316 kts | 5° |
| 2026-04-20 05:20 | 45.12585 | -122.65558 | 10086 ft | 306 kts | 5° |
| 2026-04-20 05:20 | 45.14679 | -122.65347 | 9809 ft | 295 kts | 5° |
| 2026-04-20 05:20 | 45.16690 | -122.65142 | 9508 ft | 289 kts | 5° |
| 2026-04-20 05:21 | 45.18691 | -122.64936 | 9213 ft | 287 kts | 5° |
| 2026-04-20 05:21 | 45.20678 | -122.64735 | 8906 ft | 286 kts | 5° |
| 2026-04-20 05:21 | 45.22651 | -122.64534 | 8596 ft | 284 kts | 5° |
| 2026-04-20 05:21 | 45.24556 | -122.64071 | 8265 ft | 274 kts | 24° |
| 2026-04-20 05:22 | 45.26089 | -122.62541 | 7983 ft | 267 kts | 47° |
| 2026-04-20 05:22 | 45.27330 | -122.60589 | 7703 ft | 267 kts | 48° |
| 2026-04-20 05:22 | 45.28559 | -122.58641 | 7402 ft | 269 kts | 48° |
| 2026-04-20 05:22 | 45.29810 | -122.56657 | 7102 ft | 271 kts | 48° |
| 2026-04-20 05:23 | 45.31066 | -122.54664 | 6784 ft | 268 kts | 48° |
| 2026-04-20 05:23 | 45.32278 | -122.52746 | 6482 ft | 257 kts | 48° |
| 2026-04-20 05:23 | 45.33468 | -122.50861 | 6193 ft | 255 kts | 47° |
| 2026-04-20 05:23 | 45.34649 | -122.48995 | 5908 ft | 253 kts | 47° |
| 2026-04-20 05:24 | 45.35818 | -122.47146 | 5623 ft | 251 kts | 47° |
| 2026-04-20 05:24 | 45.36969 | -122.45329 | 5386 ft | 238 kts | 47° |
| 2026-04-20 05:24 | 45.38034 | -122.43643 | 5282 ft | 226 kts | 47° |
| 2026-04-20 05:24 | 45.39081 | -122.41989 | 5197 ft | 225 kts | 47° |
| 2026-04-20 05:25 | 45.40123 | -122.40338 | 5102 ft | 223 kts | 47° |
| 2026-04-20 05:25 | 45.41158 | -122.38697 | 5041 ft | 224 kts | 47° |
| 2026-04-20 05:25 | 45.42324 | -122.37253 | 4734 ft | 224 kts | 23° |
| 2026-04-20 05:25 | 45.43811 | -122.37026 | 4450 ft | 212 kts | 348° |
| 2026-04-20 05:26 | 45.45215 | -122.37562 | 4157 ft | 209 kts | 346° |
| 2026-04-20 05:26 | 45.46619 | -122.38089 | 3834 ft | 209 kts | 346° |
| 2026-04-20 05:26 | 45.48024 | -122.38622 | 3534 ft | 209 kts | 345° |
| 2026-04-20 05:26 | 45.49420 | -122.39158 | 3239 ft | 206 kts | 343° |
| 2026-04-20 05:27 | 45.50587 | -122.40193 | 3034 ft | 191 kts | 310° |
| 2026-04-20 05:27 | 45.51350 | -122.41721 | 3035 ft | 188 kts | 307° |
| 2026-04-20 05:27 | 45.52060 | -122.43172 | 2978 ft | 169 kts | 304° |
| 2026-04-20 05:27 | 45.52639 | -122.44538 | 2985 ft | 153 kts | 301° |
| 2026-04-20 05:28 | 45.53150 | -122.45826 | 2971 ft | 147 kts | 301° |
| 2026-04-20 05:28 | 45.53647 | -122.47096 | 2978 ft | 147 kts | 301° |
| 2026-04-20 05:28 | 45.54022 | -122.48440 | 2950 ft | 149 kts | 274° |
| 2026-04-20 05:28 | 45.53653 | -122.49809 | 2971 ft | 155 kts | 224° |
| 2026-04-20 05:29 | 45.52742 | -122.50689 | 2971 ft | 164 kts | 214° |
| 2026-04-20 05:29 | 45.51733 | -122.51634 | 3031 ft | 184 kts | 214° |
| 2026-04-20 05:29 | 45.50558 | -122.52756 | 3086 ft | 220 kts | 215° |
| 2026-04-20 05:29 | 45.49266 | -122.53993 | 3009 ft | 226 kts | 215° |
| 2026-04-20 05:30 | 45.47964 | -122.55238 | 3011 ft | 225 kts | 214° |
| 2026-04-20 05:30 | 45.46668 | -122.56471 | 3038 ft | 224 kts | 214° |
| 2026-04-20 05:30 | 45.45310 | -122.57458 | 3023 ft | 221 kts | 188° |
| 2026-04-20 05:30 | 45.43874 | -122.57105 | 3028 ft | 206 kts | 144° |
| 2026-04-20 05:31 | 45.43092 | -122.55557 | 2996 ft | 190 kts | 99° |
| 2026-04-20 05:31 | 45.43069 | -122.53741 | 2744 ft | 181 kts | 87° |
| 2026-04-20 05:31 | 45.43061 | -122.51936 | 2358 ft | 182 kts | 84° |
| 2026-04-20 05:31 | 45.43455 | -122.50261 | 2052 ft | 176 kts | 63° |
| 2026-04-20 05:32 | 45.43987 | -122.48622 | 2043 ft | 188 kts | 66° |
| 2026-04-20 05:32 | 45.44524 | -122.46954 | 1980 ft | 183 kts | 59° |
| 2026-04-20 05:32 | 45.45422 | -122.45680 | 2015 ft | 186 kts | 36° |
| 2026-04-20 05:32 | 45.46445 | -122.44554 | 2010 ft | 187 kts | 39° |
| 2026-04-20 05:33 | 45.47461 | -122.43392 | 1994 ft | 187 kts | 39° |
| 2026-04-20 05:33 | 45.48477 | -122.42235 | 1987 ft | 187 kts | 39° |
| 2026-04-20 05:33 | 45.49552 | -122.41250 | 1954 ft | 180 kts | 15° |
| 2026-04-20 05:33 | 45.50724 | -122.41408 | 1965 ft | 168 kts | 329° |
| 2026-04-20 05:34 | 45.51495 | -122.42547 | 1987 ft | 157 kts | 306° |
| 2026-04-20 05:34 | 45.52134 | -122.43790 | 1983 ft | 152 kts | 304° |
| 2026-04-20 05:34 | 45.53286 | -122.46219 | 1954 ft | 151 kts | 300° |
| 2026-04-20 05:35 | 45.53813 | -122.47528 | 1731 ft | 152 kts | 299° |
| 2026-04-20 05:35 | 45.54323 | -122.48829 | 1529 ft | 148 kts | 299° |
| 2026-04-20 05:35 | 45.54812 | -122.50082 | 1342 ft | 145 kts | 299° |
| 2026-04-20 05:35 | 45.55302 | -122.51342 | 1157 ft | 146 kts | 299° |
| 2026-04-20 05:36 | 45.55793 | -122.52601 | 969 ft | 143 kts | 298° |
| 2026-04-20 05:36 | 45.56272 | -122.53829 | 761 ft | 142 kts | 298° |
| 2026-04-20 05:36 | 45.56756 | -122.55052 | 536 ft | 142 kts | 297° |
| 2026-04-20 05:36 | 45.57222 | -122.56279 | 415 ft | 143 kts | 297° |
| 2026-04-20 05:37 | 45.57712 | -122.57524 | 217 ft | 143 kts | 298° |
| 2026-04-20 05:37 | 45.58189 | -122.58750 | 51 ft | 139 kts | 298° |
| 2026-04-20 05:37 | 45.58624 | -122.59868 | 43 ft | 116 kts | 301° |
| 2026-04-20 05:37 | 45.58960 | -122.60720 | 36 ft | 81 kts | 299° |
| 2026-04-20 05:38 | 45.59157 | -122.61231 | 37 ft | 32 kts | 298° |
| 2026-04-20 05:38 | 45.59230 | -122.61345 | 33 ft | 11 kts | 346° |
| 2026-04-20 05:38 | 45.59282 | -122.61332 | 34 ft | 6 kts | 24° |
| 2026-04-20 05:38 | 45.59313 | -122.61310 | 35 ft | 3 kts | 26° |
| 2026-04-20 05:39 | 45.59332 | -122.61294 | 36 ft | 3 kts | 40° |
| 2026-04-20 05:39 | 45.59340 | -122.61258 | 36 ft | 7 kts | 86° |
| 2026-04-20 05:39 | 45.59306 | -122.61128 | 37 ft | 18 kts | 120° |
| 2026-04-20 05:39 | 45.59246 | -122.60976 | 40 ft | 18 kts | 119° |
| 2026-04-20 05:40 | 45.59186 | -122.60822 | 40 ft | 18 kts | 119° |
| 2026-04-20 05:40 | 45.59131 | -122.60679 | 41 ft | 15 kts | 119° |
| 2026-04-20 05:40 | 45.59078 | -122.60580 | 39 ft | 11 kts | 132° |
| 2026-04-20 05:40 | 45.59023 | -122.60501 | 39 ft | 12 kts | 136° |
| 2026-04-20 05:41 | 45.58966 | -122.60415 | 38 ft | 13 kts | 122° |
| 2026-04-20 05:41 | 45.58921 | -122.60301 | 37 ft | 10 kts | 119° |
| 2026-04-20 05:41 | 45.58926 | -122.60234 | 38 ft | 8 kts | 47° |
| 2026-04-20 05:41 | 45.59009 | -122.60163 | 35 ft | 24 kts | 29° |
| 2026-04-20 05:42 | 45.59075 | -122.60111 | 35 ft | 0 kts | 29° |
| 2026-04-20 05:42 | 45.59103 | -122.60085 | 35 ft | 8 kts | 35° |
| 2026-04-20 05:42 | 45.59134 | -122.60014 | 35 ft | 9 kts | 78° |
| 2026-04-20 05:42 | 45.59132 | -122.59913 | 34 ft | 11 kts | 106° |
| 2026-04-20 05:43 | 45.59109 | -122.59849 | 33 ft | 0 kts | 119° |
| 2026-04-20 05:43 | 45.59108 | -122.59845 | 33 ft | 1 kts | 119° |
| 2026-04-20 05:43 | 45.59105 | -122.59838 | 34 ft | 1 kts | 116° |
| 2026-04-20 05:43 | 45.59110 | -122.59819 | 34 ft | 3 kts | 60° |
| 2026-04-20 05:44 | 45.59141 | -122.59801 | 33 ft | 5 kts | 34° |
| 2026-04-20 05:44 | 45.59152 | -122.59758 | 34 ft | 2 kts | 82° |
| 2026-04-20 05:44 | 45.59154 | -122.59735 | 35 ft | 0 kts | 84° |